createdAt,value
2022-09-06T00:01:10.830Z,23.00
2022-09-06T00:03:39.392Z,23.08
2022-09-06T00:06:08.892Z,22.96
2022-09-06T00:08:36.437Z,23.01
2022-09-06T00:11:04.004Z,22.98
2022-09-06T00:13:31.708Z,23.05
2022-09-06T00:16:07.800Z,23.11
2022-09-06T00:18:35.679Z,23.06
2022-09-06T00:21:04.405Z,23.08
2022-09-06T00:23:31.934Z,23.04
2022-09-06T00:26:04.029Z,22.89
2022-09-06T00:28:31.592Z,22.93
2022-09-06T00:30:59.161Z,22.86
2022-09-06T00:33:28.095Z,22.84
2022-09-06T00:36:01.233Z,22.88
2022-09-06T00:38:28.844Z,22.80
2022-09-06T00:40:57.232Z,22.85
2022-09-06T00:43:24.943Z,22.90
2022-09-06T00:45:54.213Z,22.91
2022-09-06T00:48:22.880Z,22.83
2022-09-06T00:50:54.893Z,22.79
2022-09-06T00:53:22.776Z,22.80
2022-09-06T00:55:50.521Z,22.95
2022-09-06T00:58:18.106Z,22.79
2022-09-06T01:00:45.860Z,22.84
2022-09-06T01:03:13.841Z,22.90
2022-09-06T01:05:53.908Z,22.81
2022-09-06T01:08:37.206Z,22.88
2022-09-06T01:11:23.388Z,22.86
2022-09-06T01:14:01.013Z,22.94
2022-09-06T01:16:37.138Z,23.04
2022-09-06T01:19:31.915Z,23.12
2022-09-06T01:22:15.306Z,23.03
2022-09-06T01:25:05.169Z,23.17
2022-09-06T01:28:03.711Z,23.27
2022-09-06T01:30:36.568Z,23.28
2022-09-06T01:33:13.681Z,23.33
2022-09-06T01:35:45.556Z,23.32
2022-09-06T01:38:14.169Z,23.38
2022-09-06T01:40:41.729Z,23.40
2022-09-06T01:43:14.595Z,23.41
2022-09-06T01:45:52.940Z,23.48
2022-09-06T01:48:31.138Z,23.42
2022-09-06T01:51:09.291Z,23.47
2022-09-06T01:54:15.829Z,23.47
2022-09-06T01:56:54.822Z,23.44
2022-09-06T01:59:41.745Z,23.58
2022-09-06T02:02:15.004Z,23.61
2022-09-06T02:04:46.989Z,23.52
2022-09-06T02:07:21.044Z,23.55
2022-09-06T02:09:52.313Z,23.52
2022-09-06T02:12:22.302Z,23.60
2022-09-06T02:14:56.922Z,23.61
2022-09-06T02:17:28.910Z,23.53
2022-09-06T02:20:00.828Z,23.60
2022-09-06T02:22:33.266Z,23.55
2022-09-06T02:25:02.052Z,23.60
2022-09-06T02:27:31.104Z,23.41
2022-09-06T02:30:02.827Z,23.46
2022-09-06T02:32:31.936Z,23.29
2022-09-06T02:34:59.616Z,23.36
2022-09-06T02:37:28.065Z,23.32
2022-09-06T02:39:56.114Z,23.31
2022-09-06T02:42:25.535Z,23.37
2022-09-06T02:44:53.131Z,23.35
2022-09-06T02:47:22.035Z,23.38
2022-09-06T02:49:49.562Z,23.46
2022-09-06T02:52:17.447Z,23.28
2022-09-06T02:54:45.197Z,23.22
2022-09-06T02:57:12.822Z,23.12
2022-09-06T02:59:40.505Z,22.91
2022-09-06T03:02:08.127Z,22.93
2022-09-06T03:04:37.020Z,23.07
2022-09-06T03:07:04.864Z,23.05
2022-09-06T03:09:32.441Z,23.01
2022-09-06T03:12:00.028Z,23.03
2022-09-06T03:14:30.210Z,23.02
2022-09-06T03:16:57.882Z,22.96
2022-09-06T03:19:25.457Z,22.92
2022-09-06T03:21:54.966Z,22.81
2022-09-06T03:24:22.485Z,22.77
2022-09-06T03:26:50.309Z,22.77
2022-09-06T03:29:17.823Z,22.81
2022-09-06T03:31:45.363Z,22.83
2022-09-06T03:34:12.914Z,22.76
2022-09-06T03:36:40.482Z,22.76
2022-09-06T03:39:09.396Z,22.58
2022-09-06T03:41:38.145Z,22.59
2022-09-06T03:44:05.961Z,22.47
2022-09-06T03:46:33.723Z,22.53
2022-09-06T03:49:01.918Z,22.56
2022-09-06T03:51:29.471Z,22.56
2022-09-06T03:53:57.656Z,22.13
2022-09-06T03:56:27.181Z,22.44
2022-09-06T03:58:54.856Z,22.50
2022-09-06T04:01:22.517Z,22.46
2022-09-06T04:03:50.221Z,22.49
2022-09-06T04:06:17.886Z,22.42
2022-09-06T04:08:45.428Z,22.41
2022-09-06T04:11:13.030Z,22.50
2022-09-06T04:13:42.011Z,22.64
2022-09-06T04:16:09.610Z,22.55
2022-09-06T04:18:37.504Z,22.63
2022-09-06T04:21:06.082Z,22.62
2022-09-06T04:23:39.156Z,22.61
2022-09-06T04:26:07.587Z,22.65
2022-09-06T04:28:35.371Z,22.74
2022-09-06T04:31:05.570Z,22.69
2022-09-06T04:33:34.855Z,22.65
2022-09-06T04:36:04.388Z,22.63
2022-09-06T04:38:36.010Z,22.51
2022-09-06T04:41:03.615Z,22.46
2022-09-06T04:43:31.127Z,22.56
2022-09-06T04:46:05.881Z,22.37
2022-09-06T04:48:35.469Z,22.40
2022-09-06T04:51:03.082Z,22.39
2022-09-06T04:53:30.634Z,22.39
2022-09-06T04:55:58.908Z,22.38
2022-09-06T04:58:26.662Z,22.28
2022-09-06T05:00:54.870Z,22.10
2022-09-06T05:03:23.794Z,22.35
2022-09-06T05:05:51.386Z,22.18
2022-09-06T05:08:18.947Z,22.09
2022-09-06T05:10:46.515Z,22.15
2022-09-06T05:13:14.116Z,22.20
2022-09-06T05:15:41.706Z,22.28
2022-09-06T05:18:12.917Z,22.19
2022-09-06T05:20:44.923Z,22.35
2022-09-06T05:23:12.448Z,22.35
2022-09-06T05:25:40.015Z,22.22
2022-09-06T05:28:07.575Z,22.32
2022-09-06T05:30:35.124Z,22.28
2022-09-06T05:33:02.685Z,21.99
2022-09-06T05:35:30.267Z,22.08
2022-09-06T05:37:59.120Z,22.06
2022-09-06T05:40:26.672Z,22.10
2022-09-06T05:42:54.218Z,22.12
2022-09-06T05:45:21.946Z,22.05
2022-09-06T05:47:49.543Z,21.90
2022-09-06T05:50:17.330Z,22.05
2022-09-06T05:52:44.869Z,22.33
2022-09-06T05:55:14.110Z,22.31
2022-09-06T05:57:41.666Z,22.18
2022-09-06T06:00:12.065Z,22.17
2022-09-06T06:02:40.587Z,22.24
2022-09-06T06:05:09.142Z,22.35
2022-09-06T06:07:36.737Z,22.25
2022-09-06T06:10:05.026Z,22.28
2022-09-06T06:12:34.024Z,22.40
2022-09-06T06:15:01.590Z,22.41
2022-09-06T06:17:29.465Z,22.37
2022-09-06T06:19:58.227Z,22.53
2022-09-06T06:22:25.797Z,22.56
2022-09-06T06:24:53.310Z,22.65
2022-09-06T06:27:20.885Z,22.59
2022-09-06T06:29:50.442Z,22.58
2022-09-06T06:32:17.982Z,22.61
2022-09-06T06:34:45.526Z,22.73
2022-09-06T06:37:13.073Z,22.81
2022-09-06T06:39:40.883Z,22.95
2022-09-06T06:42:09.101Z,23.13
2022-09-06T06:44:36.661Z,23.14
2022-09-06T06:47:05.744Z,23.18
2022-09-06T06:49:33.310Z,23.32
2022-09-06T06:52:00.842Z,23.34
2022-09-06T06:54:32.097Z,23.43
2022-09-06T06:56:59.623Z,23.44
2022-09-06T06:59:27.162Z,23.41
2022-09-06T07:01:54.781Z,23.51
2022-09-06T07:04:24.027Z,23.55
2022-09-06T07:12:29.061Z,23.57
2022-09-06T07:14:56.817Z,23.65
2022-09-06T07:17:24.371Z,23.71
2022-09-06T07:22:41.559Z,23.75
2022-09-06T07:25:12.175Z,23.82
2022-09-06T07:27:48.873Z,23.85
2022-09-06T07:30:17.425Z,23.92
2022-09-06T07:32:45.018Z,23.93
2022-09-06T07:35:14.351Z,23.95
2022-09-06T07:37:42.146Z,24.01
2022-09-06T07:40:11.222Z,24.01
2022-09-06T07:42:38.984Z,24.09
2022-09-06T07:45:07.363Z,24.03
2022-09-06T07:53:15.486Z,24.12
2022-09-06T07:55:47.103Z,24.18
2022-09-06T07:58:15.212Z,24.21
2022-09-06T08:00:42.928Z,24.26
2022-09-06T08:03:10.610Z,24.32
2022-09-06T08:11:15.254Z,24.43
2022-09-06T08:13:43.314Z,24.47
2022-09-06T08:16:12.591Z,24.50
2022-09-06T08:18:40.264Z,24.48
2022-09-06T08:21:12.868Z,24.43
2022-09-06T08:23:42.636Z,24.52
2022-09-06T08:26:10.255Z,24.68
2022-09-06T08:28:38.123Z,24.77
2022-09-06T08:31:10.244Z,24.71
2022-09-06T08:33:38.705Z,24.79
2022-09-06T08:36:07.223Z,24.82
2022-09-06T08:38:36.354Z,24.92
2022-09-06T08:41:10.024Z,25.03
2022-09-06T08:43:38.638Z,25.10
2022-09-06T08:46:08.803Z,25.16
2022-09-06T08:48:39.840Z,25.21
2022-09-06T08:51:38.543Z,25.27
2022-09-06T08:54:16.196Z,25.34
2022-09-06T08:56:55.043Z,25.39
2022-09-06T08:59:23.190Z,25.37
2022-09-06T09:02:02.680Z,25.52
2022-09-06T09:04:32.648Z,25.59
2022-09-06T09:07:11.412Z,25.61
2022-09-06T09:09:40.364Z,25.68
2022-09-06T09:12:09.703Z,25.73
2022-09-06T09:14:40.304Z,25.83
2022-09-06T09:17:16.762Z,25.87
2022-09-06T09:19:44.372Z,25.92
2022-09-06T09:22:13.547Z,25.94
2022-09-06T09:24:42.624Z,26.07
2022-09-06T09:27:13.293Z,26.14
2022-09-06T09:32:49.469Z,26.35
2022-09-06T09:35:20.703Z,26.39
2022-09-06T09:37:51.250Z,26.44
2022-09-06T09:40:34.844Z,26.49
2022-09-06T09:43:15.473Z,26.56
2022-09-06T09:45:43.872Z,26.64
2022-09-06T09:48:26.930Z,26.67
2022-09-06T09:50:55.550Z,26.73
2022-09-06T09:53:26.022Z,26.75
2022-09-06T09:55:59.896Z,26.85
2022-09-06T09:58:33.145Z,26.97
2022-09-06T10:01:12.106Z,27.10
2022-09-06T10:09:20.024Z,27.25
2022-09-06T10:11:55.822Z,27.29
2022-09-06T10:14:29.228Z,27.38
2022-09-06T10:16:58.057Z,27.49
2022-09-06T10:19:41.942Z,27.63
2022-09-06T10:22:21.677Z,27.67
2022-09-06T10:25:08.298Z,27.69
2022-09-06T10:27:55.440Z,27.72
2022-09-06T10:30:31.484Z,27.77
2022-09-06T10:33:06.457Z,27.86
2022-09-06T10:35:38.734Z,27.96
2022-09-06T10:38:20.743Z,27.94
2022-09-06T10:40:58.964Z,28.01
2022-09-06T10:43:35.951Z,28.13
2022-09-06T10:46:08.986Z,28.24
2022-09-06T10:48:41.989Z,28.27
2022-09-06T10:51:18.970Z,28.36
2022-09-06T10:53:50.540Z,28.36
2022-09-06T10:56:23.451Z,28.50
2022-09-06T11:01:52.076Z,28.58
2022-09-06T11:04:27.971Z,28.57
2022-09-06T11:07:00.086Z,28.66
2022-09-06T11:09:33.047Z,28.74
2022-09-06T11:12:09.310Z,28.87
2022-09-06T11:14:39.800Z,28.90
2022-09-06T11:17:13.893Z,28.91
2022-09-06T11:19:47.848Z,29.07
2022-09-06T11:22:29.404Z,29.07
2022-09-06T11:25:19.898Z,29.17
2022-09-06T11:27:57.843Z,29.14
2022-09-06T11:30:28.325Z,29.08
2022-09-06T11:33:10.992Z,29.14
2022-09-06T11:35:41.410Z,29.24
2022-09-06T11:38:21.518Z,29.35
2022-09-06T11:40:53.132Z,29.44
2022-09-06T11:43:44.977Z,29.51
2022-09-06T11:46:52.322Z,29.49
2022-09-06T11:49:34.513Z,29.50
2022-09-06T11:52:03.577Z,29.57
2022-09-06T11:54:44.014Z,29.57
2022-09-06T11:57:17.581Z,29.52
2022-09-06T11:59:56.596Z,29.56
2022-09-06T12:02:36.368Z,29.77
2022-09-06T12:05:29.130Z,29.82
2022-09-06T12:08:30.149Z,29.82
2022-09-06T12:11:07.070Z,29.95
2022-09-06T12:13:48.606Z,30.01
2022-09-06T12:16:17.718Z,30.06
2022-09-06T12:19:01.225Z,30.11
2022-09-06T12:21:46.000Z,30.15
2022-09-06T12:24:47.214Z,30.21
2022-09-06T12:27:17.144Z,30.17
2022-09-06T12:29:58.002Z,30.10
2022-09-06T12:32:31.643Z,30.07
2022-09-06T12:37:57.008Z,30.23
2022-09-06T12:40:26.935Z,30.20
2022-09-06T12:42:55.327Z,30.33
2022-09-06T12:45:27.396Z,30.42
2022-09-06T12:48:06.286Z,30.49
2022-09-06T12:50:35.619Z,30.60
2022-09-06T12:53:05.206Z,30.69
2022-09-06T12:55:35.630Z,30.68
2022-09-06T12:58:05.490Z,30.65
2022-09-06T13:00:37.729Z,30.69
2022-09-06T13:03:20.488Z,30.64
2022-09-06T13:05:49.615Z,30.74
2022-09-06T13:08:25.915Z,30.88
2022-09-06T13:10:53.951Z,30.98
2022-09-06T13:13:24.652Z,30.93
2022-09-06T13:15:52.978Z,31.07
2022-09-06T13:18:23.429Z,30.84
2022-09-06T13:21:06.583Z,30.85
2022-09-06T13:23:42.305Z,30.91
2022-09-06T13:26:10.044Z,30.87
2022-09-06T13:28:38.516Z,30.93
2022-09-06T13:31:12.937Z,30.93
2022-09-06T13:33:41.937Z,30.97
2022-09-06T13:36:22.349Z,30.94
2022-09-06T13:38:50.708Z,31.12
2022-09-06T13:41:37.870Z,31.14
2022-09-06T13:44:07.888Z,31.18
2022-09-06T13:46:37.043Z,31.22
2022-09-06T13:49:05.609Z,31.21
2022-09-06T13:51:35.272Z,31.04
2022-09-06T13:54:08.041Z,30.80
2022-09-06T13:56:35.783Z,30.92
2022-09-06T13:59:04.270Z,31.01
2022-09-06T14:01:33.702Z,30.83
2022-09-06T14:04:01.330Z,30.86
2022-09-06T14:06:29.069Z,30.83
2022-09-06T14:09:07.779Z,30.92
2022-09-06T14:11:36.442Z,30.82
2022-09-06T14:14:06.606Z,30.96
2022-09-06T14:16:34.756Z,30.98
2022-09-06T14:19:02.388Z,30.92
2022-09-06T14:21:30.086Z,30.87
2022-09-06T14:24:03.844Z,30.76
2022-09-06T14:26:31.677Z,30.78
2022-09-06T14:28:59.221Z,30.60
2022-09-06T14:31:28.893Z,30.55
2022-09-06T14:33:57.900Z,30.51
2022-09-06T14:36:27.269Z,30.64
2022-09-06T14:38:54.827Z,30.61
2022-09-06T14:41:23.754Z,30.71
2022-09-06T14:43:54.349Z,30.64
2022-09-06T14:46:23.334Z,30.79
2022-09-06T14:48:57.498Z,30.69
2022-09-06T14:51:25.064Z,30.59
2022-09-06T14:53:54.952Z,30.53
2022-09-06T14:56:24.224Z,30.60
2022-09-06T14:58:51.837Z,30.63
2022-09-06T15:01:21.880Z,30.69
2022-09-06T15:03:51.645Z,30.67
2022-09-06T15:06:21.062Z,30.68
2022-09-06T15:08:48.856Z,30.62
2022-09-06T15:11:30.075Z,30.69
2022-09-06T15:13:59.340Z,30.62
2022-09-06T15:16:27.315Z,30.66
2022-09-06T15:18:55.290Z,30.66
2022-09-06T15:21:23.782Z,30.50
2022-09-06T15:23:52.565Z,30.62
2022-09-06T15:26:21.485Z,30.58
2022-09-06T15:28:49.102Z,30.62
2022-09-06T15:31:19.450Z,30.63
2022-09-06T15:33:48.704Z,30.47
2022-09-06T15:36:16.559Z,30.55
2022-09-06T15:38:47.286Z,30.47
2022-09-06T15:41:16.673Z,30.56
2022-09-06T15:43:47.122Z,30.60
2022-09-06T15:46:15.805Z,30.55
2022-09-06T15:48:46.255Z,30.47
2022-09-06T15:51:15.824Z,30.39
2022-09-06T15:53:43.770Z,30.31
2022-09-06T15:56:15.477Z,30.34
2022-09-06T15:58:43.105Z,30.19
2022-09-06T16:01:12.421Z,30.14
2022-09-06T16:03:41.912Z,30.07
2022-09-06T16:06:28.647Z,30.01
2022-09-06T16:08:59.410Z,29.99
2022-09-06T16:11:27.965Z,30.05
2022-09-06T16:13:56.150Z,30.04
2022-09-06T16:16:24.057Z,30.04
2022-09-06T16:18:52.965Z,29.94
2022-09-06T16:21:24.446Z,29.89
2022-09-06T16:23:54.467Z,29.82
2022-09-06T16:26:22.985Z,29.87
2022-09-06T16:28:51.849Z,29.81
2022-09-06T16:31:20.582Z,29.59
2022-09-06T16:33:48.826Z,29.54
2022-09-06T16:36:17.465Z,29.51
2022-09-06T16:38:47.161Z,29.47
2022-09-06T16:41:18.178Z,29.35
2022-09-06T16:43:47.340Z,29.30
2022-09-06T16:46:15.082Z,29.19
2022-09-06T16:48:42.886Z,29.16
2022-09-06T16:51:15.285Z,29.10
2022-09-06T16:53:44.506Z,29.19
2022-09-06T16:56:15.647Z,29.20
2022-09-06T16:58:43.788Z,29.10
2022-09-06T17:01:12.111Z,29.03
2022-09-06T17:03:40.383Z,28.86
2022-09-06T17:06:09.206Z,28.78
2022-09-06T17:08:37.414Z,28.79
2022-09-06T17:11:07.044Z,28.62
2022-09-06T17:13:36.915Z,28.63
2022-09-06T17:16:23.141Z,28.50
2022-09-06T17:18:53.481Z,28.35
2022-09-06T17:21:21.575Z,28.30
2022-09-06T17:23:50.270Z,28.20
2022-09-06T17:26:19.685Z,28.11
2022-09-06T17:28:49.322Z,28.04
2022-09-06T17:31:21.018Z,27.96
2022-09-06T17:33:51.379Z,27.85
2022-09-06T17:36:21.176Z,27.74
2022-09-06T17:38:53.334Z,27.61
2022-09-06T17:41:24.097Z,27.50
2022-09-06T17:43:53.978Z,27.43
2022-09-06T17:46:25.238Z,27.23
2022-09-06T17:48:55.854Z,27.12
2022-09-06T17:51:23.477Z,27.06
2022-09-06T17:53:51.488Z,26.99
2022-09-06T17:56:19.797Z,26.91
2022-09-06T17:58:54.977Z,26.83
2022-09-06T18:01:24.387Z,26.69
2022-09-06T18:03:52.406Z,26.64
2022-09-06T18:06:23.415Z,26.57
2022-09-06T18:08:53.007Z,26.55
2022-09-06T18:11:22.773Z,26.50
2022-09-06T18:13:57.698Z,26.45
2022-09-06T18:16:26.546Z,26.43
2022-09-06T18:18:55.862Z,26.37
2022-09-06T18:21:24.889Z,26.40
2022-09-06T18:23:52.621Z,26.38
2022-09-06T18:26:20.180Z,26.14
2022-09-06T18:28:47.999Z,26.10
2022-09-06T18:31:21.980Z,26.06
2022-09-06T18:33:49.960Z,26.10
2022-09-06T18:36:19.385Z,26.04
2022-09-06T18:38:47.294Z,26.09
2022-09-06T18:41:30.555Z,26.16
2022-09-06T18:44:00.387Z,26.10
2022-09-06T18:46:29.755Z,26.05
2022-09-06T18:48:57.375Z,26.08
2022-09-06T18:51:25.183Z,26.04
2022-09-06T18:53:53.062Z,26.01
2022-09-06T18:56:20.984Z,26.05
2022-09-06T18:58:48.898Z,26.08
2022-09-06T19:01:19.513Z,26.10
2022-09-06T19:03:48.567Z,26.09
2022-09-06T19:06:18.704Z,26.04
2022-09-06T19:08:47.461Z,25.98
2022-09-06T19:11:17.635Z,25.86
2022-09-06T19:13:46.953Z,25.87
2022-09-06T19:16:15.453Z,25.74
2022-09-06T19:18:43.174Z,25.82
2022-09-06T19:21:14.236Z,25.87
2022-09-06T19:23:44.019Z,25.80
2022-09-06T19:26:14.526Z,25.83
2022-09-06T19:28:42.197Z,25.79
2022-09-06T19:31:15.548Z,25.75
2022-09-06T19:33:44.438Z,25.74
2022-09-06T19:36:14.122Z,25.65
2022-09-06T19:39:01.852Z,25.69
2022-09-06T19:41:30.956Z,25.66
2022-09-06T19:44:00.095Z,25.63
2022-09-06T19:46:28.341Z,25.68
2022-09-06T19:48:56.813Z,25.65
2022-09-06T19:51:25.871Z,25.68
2022-09-06T19:53:55.075Z,25.68
2022-09-06T19:56:24.223Z,25.65
2022-09-06T19:58:55.509Z,25.56
2022-09-06T20:01:23.612Z,25.62
2022-09-06T20:03:51.437Z,25.69
2022-09-06T20:06:19.077Z,25.70
2022-09-06T20:08:50.844Z,25.74
2022-09-06T20:11:19.290Z,25.81
2022-09-06T20:13:47.101Z,25.92
2022-09-06T20:16:15.713Z,25.86
2022-09-06T20:18:43.344Z,25.71
2022-09-06T20:21:13.752Z,25.63
2022-09-06T20:23:41.942Z,25.63
2022-09-06T20:26:13.432Z,25.74
2022-09-06T20:28:40.978Z,25.77
2022-09-06T20:31:10.744Z,25.85
2022-09-06T20:33:39.362Z,25.92
2022-09-06T20:36:08.901Z,26.02
2022-09-06T20:38:37.970Z,26.11
2022-09-06T20:41:07.824Z,26.13
2022-09-06T20:43:37.758Z,26.16
2022-09-06T20:46:10.668Z,26.18
2022-09-06T20:48:43.629Z,26.16
2022-09-06T20:51:14.804Z,26.17
2022-09-06T20:53:42.885Z,26.14
2022-09-06T20:56:12.214Z,26.16
2022-09-06T20:58:41.945Z,26.08
2022-09-06T21:01:11.635Z,26.14
2022-09-06T21:03:41.038Z,26.08
2022-09-06T21:06:09.494Z,26.03
2022-09-06T21:08:42.381Z,26.09
2022-09-06T21:11:11.636Z,26.12
2022-09-06T21:13:39.538Z,26.02
2022-09-06T21:16:08.874Z,25.94
2022-09-06T21:18:37.023Z,25.87
2022-09-06T21:21:06.968Z,25.85
2022-09-06T21:23:36.344Z,25.86
2022-09-06T21:26:06.047Z,25.80
2022-09-06T21:28:36.529Z,25.78
2022-09-06T21:31:07.993Z,25.75
2022-09-06T21:33:39.112Z,25.75
2022-09-06T21:36:08.912Z,25.70
2022-09-06T21:38:38.277Z,25.61
2022-09-06T21:41:07.801Z,25.62
2022-09-06T21:43:35.838Z,25.54
2022-09-06T21:46:04.006Z,25.51
2022-09-06T21:48:31.978Z,25.55
2022-09-06T21:51:00.985Z,25.62
2022-09-06T21:53:28.530Z,25.65
2022-09-06T21:56:00.905Z,25.64
2022-09-06T21:58:28.537Z,25.54
2022-09-06T22:00:59.157Z,25.61
2022-09-06T22:03:27.310Z,25.57
2022-09-06T22:05:55.079Z,25.53
2022-09-06T22:08:24.569Z,25.49
2022-09-06T22:10:52.629Z,25.63
2022-09-06T22:13:21.388Z,25.63
2022-09-06T22:15:49.177Z,25.63
2022-09-06T22:18:16.753Z,25.54
2022-09-06T22:20:44.266Z,25.50
2022-09-06T22:23:11.879Z,25.39
2022-09-06T22:25:42.818Z,25.33
2022-09-06T22:28:10.952Z,25.28
2022-09-06T22:30:38.498Z,25.34
2022-09-06T22:33:06.034Z,25.31
2022-09-06T22:35:33.570Z,25.35
2022-09-06T22:38:01.254Z,25.40
2022-09-06T22:40:28.826Z,25.46
2022-09-06T22:42:57.696Z,25.41
2022-09-06T22:45:25.205Z,25.41
2022-09-06T22:47:53.730Z,25.40
2022-09-06T22:50:21.293Z,25.27
2022-09-06T22:52:48.847Z,25.22
2022-09-06T22:55:17.123Z,25.34
2022-09-06T22:57:44.706Z,25.33
2022-09-06T23:00:15.771Z,25.15
2022-09-06T23:02:43.304Z,25.19
2022-09-06T23:05:10.866Z,25.23
2022-09-06T23:07:38.422Z,25.09
2022-09-06T23:10:06.969Z,25.11
2022-09-06T23:12:34.527Z,25.14
2022-09-06T23:15:02.085Z,25.26
2022-09-06T23:17:31.392Z,25.26
2022-09-06T23:19:58.928Z,25.30
2022-09-06T23:22:26.575Z,25.08
2022-09-06T23:24:54.124Z,25.05
2022-09-06T23:27:22.214Z,25.09
2022-09-06T23:29:49.765Z,25.14
2022-09-06T23:32:17.398Z,25.27
2022-09-06T23:34:46.286Z,25.28
2022-09-06T23:37:13.872Z,25.12
2022-09-06T23:39:41.417Z,25.06
2022-09-06T23:42:09.135Z,25.10
2022-09-06T23:44:36.665Z,25.07
2022-09-06T23:47:04.263Z,25.00
2022-09-06T23:49:31.852Z,24.72
2022-09-06T23:52:00.752Z,24.60
2022-09-06T23:54:28.264Z,24.13
2022-09-06T23:56:55.846Z,23.84
2022-09-06T23:59:23.388Z,23.73
